createdAt,value
2024-05-09T00:00:46.742Z,101151.16
2024-05-09T00:06:09.736Z,101147.88
2024-05-09T00:11:15.267Z,101149.59
2024-05-09T00:16:18.007Z,101154.61
2024-05-09T00:21:20.609Z,101148.88
2024-05-09T00:26:24.265Z,101148.88
2024-05-09T00:31:26.905Z,101143.86
2024-05-09T00:36:29.530Z,101137.98
2024-05-09T00:41:32.194Z,101134.15
2024-05-09T00:46:34.922Z,101143.98
2024-05-09T00:51:39.867Z,101150.02
2024-05-09T00:56:42.879Z,101151.23
2024-05-09T01:01:46.285Z,101148.45
2024-05-09T01:06:49.093Z,101148.61
2024-05-09T01:11:51.671Z,101147.05
2024-05-09T01:16:54.704Z,101143.37
2024-05-09T01:21:57.506Z,101145.24
2024-05-09T01:27:00.066Z,101153.86
2024-05-09T01:32:04.555Z,101161.98
2024-05-09T01:37:07.378Z,101156.77
2024-05-09T01:42:09.922Z,101153.64
2024-05-09T01:47:12.688Z,101155.70
2024-05-09T01:52:15.466Z,101154.31
2024-05-09T01:57:18.188Z,101153.61
2024-05-09T02:02:20.899Z,101151.68
2024-05-09T02:07:23.558Z,101143.71
2024-05-09T02:12:26.261Z,101153.02
2024-05-09T02:17:29.083Z,101160.78
2024-05-09T02:22:31.763Z,101160.95
2024-05-09T02:27:34.311Z,101155.90
2024-05-09T02:32:36.899Z,101159.31
2024-05-09T02:37:39.555Z,101155.84
2024-05-09T02:42:42.079Z,101151.36
2024-05-09T02:47:44.822Z,101153.77
2024-05-09T02:52:47.553Z,101160.98
2024-05-09T02:57:50.104Z,101160.78
2024-05-09T03:02:52.946Z,101162.54
2024-05-09T03:07:55.754Z,101163.23
2024-05-09T03:12:58.406Z,101166.00
2024-05-09T03:18:01.605Z,101168.27
2024-05-09T03:23:06.328Z,101171.08
2024-05-09T03:28:11.561Z,101175.27
2024-05-09T03:33:16.746Z,101179.14
2024-05-09T03:38:19.831Z,101175.39
2024-05-09T03:43:22.411Z,101170.98
2024-05-09T03:48:25.083Z,101166.22
2024-05-09T03:53:28.061Z,101160.60
2024-05-09T03:58:30.599Z,101163.08
2024-05-09T04:03:34.054Z,101164.14
2024-05-09T04:08:37.586Z,101161.23
2024-05-09T04:13:40.318Z,101163.83
2024-05-09T04:18:42.955Z,101170.92
2024-05-09T04:23:45.675Z,101173.67
2024-05-09T04:28:48.377Z,101172.60
2024-05-09T04:33:51.130Z,101166.31
2024-05-09T04:38:53.769Z,101165.00
2024-05-09T04:43:56.366Z,101170.55
2024-05-09T04:48:58.994Z,101177.34
2024-05-09T04:54:02.048Z,101177.13
2024-05-09T04:59:04.635Z,101175.48
2024-05-09T05:04:07.316Z,101177.23
2024-05-09T05:09:09.861Z,101181.31
2024-05-09T05:14:12.517Z,101179.56
2024-05-09T05:19:17.141Z,101179.37
2024-05-09T05:24:20.357Z,101177.27
2024-05-09T05:29:23.289Z,101175.18
2024-05-09T05:34:25.916Z,101170.44
2024-05-09T05:39:28.694Z,101170.05
2024-05-09T05:44:31.470Z,101165.98
2024-05-09T05:49:34.497Z,101162.33
2024-05-09T05:54:37.115Z,101160.64
2024-05-09T05:59:40.403Z,101163.90
2024-05-09T06:04:43.159Z,101172.44
2024-05-09T06:09:48.197Z,101170.52
2024-05-09T06:14:52.327Z,101168.05
2024-05-09T06:19:55.079Z,101166.54
2024-05-09T06:24:57.886Z,101168.98
2024-05-09T06:30:00.479Z,101171.31
2024-05-09T06:35:03.289Z,101163.84
2024-05-09T06:40:07.588Z,101158.98
2024-05-09T06:45:12.440Z,101153.69
2024-05-09T06:50:23.266Z,101148.95
2024-05-09T06:55:27.189Z,101142.39
2024-05-09T07:00:35.968Z,101137.90
2024-05-09T07:05:42.473Z,101130.57
2024-05-09T07:10:45.648Z,101130.38
2024-05-09T07:15:48.425Z,101132.13
2024-05-09T07:20:51.244Z,101137.27
2024-05-09T07:25:54.005Z,101132.66
2024-05-09T07:30:56.666Z,101121.19
2024-05-09T07:35:59.324Z,101116.59
2024-05-09T07:41:02.077Z,101113.67
2024-05-09T07:47:04.433Z,101113.73
2024-05-09T07:56:35.024Z,101116.58
2024-05-09T08:01:37.841Z,101112.30
2024-05-09T08:06:40.511Z,101111.08
2024-05-09T08:11:44.692Z,101118.59
2024-05-09T08:16:47.392Z,101115.05
2024-05-09T08:21:50.033Z,101108.59
2024-05-09T08:26:52.739Z,101113.77
2024-05-09T08:31:56.867Z,101114.34
2024-05-09T08:37:03.814Z,101108.70
2024-05-09T08:42:16.789Z,101103.16
2024-05-09T08:47:19.450Z,101105.00
2024-05-09T08:52:22.121Z,101098.23
2024-05-09T08:57:26.024Z,101095.23
2024-05-09T09:02:29.023Z,101086.52
2024-05-09T09:07:33.420Z,101089.65
2024-05-09T09:12:36.149Z,101089.40
2024-05-09T09:17:38.977Z,101084.86
2024-05-09T09:22:41.587Z,101083.19
2024-05-09T09:27:44.348Z,101086.70
2024-05-09T09:32:49.688Z,101084.52
2024-05-09T09:37:53.830Z,101083.02
2024-05-09T09:42:57.878Z,101073.25
2024-05-09T09:48:01.840Z,101067.64
2024-05-09T09:53:07.483Z,101062.93
2024-05-09T09:58:13.214Z,101063.08
2024-05-09T10:03:16.962Z,101061.53
2024-05-09T10:08:21.979Z,101060.25
2024-05-09T10:13:33.101Z,101055.95
2024-05-09T10:18:37.112Z,101046.30
2024-05-09T10:23:43.179Z,101043.04
2024-05-09T10:28:45.834Z,101043.39
2024-05-09T10:33:50.763Z,101033.75
2024-05-09T10:38:55.106Z,101034.88
2024-05-09T10:43:57.692Z,101031.33
2024-05-09T10:49:04.241Z,101029.93
2024-05-09T10:54:08.897Z,101029.77
2024-05-09T10:59:12.849Z,101016.98
2024-05-09T11:04:15.482Z,101020.20
2024-05-09T11:09:18.273Z,101019.64
2024-05-09T11:14:21.034Z,101014.74
2024-05-09T11:19:23.924Z,101010.13
2024-05-09T11:24:26.763Z,100997.89
2024-05-09T11:29:40.200Z,101000.92
2024-05-09T11:34:42.943Z,100997.85
2024-05-09T11:39:45.753Z,100989.00
2024-05-09T11:44:48.448Z,100985.05
2024-05-09T11:49:51.927Z,100975.11
2024-05-09T11:54:54.601Z,100972.02
2024-05-09T11:59:57.318Z,100966.93
2024-05-09T12:05:00.027Z,100959.23
2024-05-09T12:10:03.469Z,100949.23
2024-05-09T12:15:07.780Z,100951.45
2024-05-09T12:20:20.925Z,100946.21
2024-05-09T12:25:28.274Z,100948.30
2024-05-09T12:30:36.737Z,100945.00
2024-05-09T12:35:44.608Z,100936.41
2024-05-09T12:40:49.344Z,100927.36
2024-05-09T12:45:52.106Z,100930.23
2024-05-09T12:50:57.313Z,100929.18
2024-05-09T12:56:02.420Z,100928.95
2024-05-09T13:01:06.544Z,100923.83
2024-05-09T13:06:10.908Z,100918.34
2024-05-09T13:11:14.142Z,100914.04
2024-05-09T13:16:16.957Z,100910.30
2024-05-09T13:21:19.745Z,100903.75
2024-05-09T13:26:22.365Z,100898.95
2024-05-09T13:31:25.040Z,100893.39
2024-05-09T13:36:28.107Z,100889.52
2024-05-09T13:41:30.761Z,100891.02
2024-05-09T13:46:33.543Z,100883.59
2024-05-09T13:51:36.204Z,100884.46
2024-05-09T13:56:39.236Z,100872.91
2024-05-09T14:01:41.987Z,100870.66
2024-05-09T14:06:44.755Z,100868.35
2024-05-09T14:11:47.594Z,100863.43
2024-05-09T14:16:50.327Z,100857.64
2024-05-09T14:21:52.937Z,100854.94
2024-05-09T14:26:56.195Z,100846.48
2024-05-09T14:31:58.825Z,100837.12
2024-05-09T14:37:01.503Z,100836.88
2024-05-09T14:42:04.555Z,100829.99
2024-05-09T14:47:07.455Z,100819.19
2024-05-09T14:52:10.259Z,100812.34
2024-05-09T14:57:13.247Z,100813.37
2024-05-09T15:02:15.814Z,100806.72
2024-05-09T15:07:19.100Z,100798.06
2024-05-09T15:12:21.774Z,100793.17
2024-05-09T15:17:24.428Z,100783.06
2024-05-09T15:22:26.970Z,100776.45
2024-05-09T15:27:30.186Z,100773.14
2024-05-09T15:32:33.005Z,100770.36
2024-05-09T15:37:35.910Z,100767.69
2024-05-09T15:42:41.692Z,100760.73
2024-05-09T15:47:45.767Z,100754.02
2024-05-09T15:52:49.660Z,100752.94
2024-05-09T15:57:52.284Z,100753.80
2024-05-09T16:02:55.002Z,100744.88
2024-05-09T16:07:58.064Z,100744.19
2024-05-09T16:13:00.948Z,100745.42
2024-05-09T16:18:04.006Z,100737.61
2024-05-09T16:23:07.596Z,100733.54
2024-05-09T16:28:11.254Z,100722.48
2024-05-09T16:33:16.754Z,100717.70
2024-05-09T16:38:21.872Z,100707.77
2024-05-09T16:43:24.523Z,100705.19
2024-05-09T16:48:27.219Z,100705.42
2024-05-09T16:53:29.695Z,100705.45
2024-05-09T16:58:32.433Z,100704.42
2024-05-09T17:03:35.365Z,100702.70
2024-05-09T17:08:38.156Z,100699.45
2024-05-09T17:13:42.774Z,100691.33
2024-05-09T17:18:48.302Z,100687.85
2024-05-09T17:23:54.138Z,100683.36
2024-05-09T17:28:57.059Z,100683.06
2024-05-09T17:33:59.770Z,100678.02
2024-05-09T17:39:02.644Z,100670.55
2024-05-09T17:44:06.342Z,100667.10
2024-05-09T17:49:09.111Z,100663.45
2024-05-09T17:54:11.747Z,100664.49
2024-05-09T17:59:14.273Z,100661.60
2024-05-09T18:04:17.750Z,100662.91
2024-05-09T18:09:20.837Z,100666.08
2024-05-09T18:14:23.457Z,100661.08
2024-05-09T18:19:26.243Z,100661.38
2024-05-09T18:24:28.902Z,100664.58
2024-05-09T18:29:31.611Z,100668.17
2024-05-09T18:34:34.223Z,100667.98
2024-05-09T18:39:36.880Z,100666.23
2024-05-09T18:44:39.555Z,100669.52
2024-05-09T18:49:42.319Z,100668.12
2024-05-09T18:54:45.010Z,100666.70
2024-05-09T18:59:47.740Z,100665.85
2024-05-09T19:04:51.064Z,100666.99
2024-05-09T19:09:53.800Z,100666.31
2024-05-09T19:14:56.389Z,100670.09
2024-05-09T19:19:59.040Z,100667.60
2024-05-09T19:25:01.632Z,100670.73
2024-05-09T19:30:11.895Z,100671.41
2024-05-09T19:35:19.756Z,100674.08
2024-05-09T19:40:29.001Z,100669.52
2024-05-09T19:45:35.643Z,100666.88
2024-05-09T19:50:43.250Z,100665.73
2024-05-09T19:55:50.615Z,100668.31
2024-05-09T20:00:53.276Z,100668.29
2024-05-09T20:05:55.959Z,100665.47
2024-05-09T20:10:58.712Z,100660.55
2024-05-09T20:16:01.644Z,100660.90
2024-05-09T20:21:04.443Z,100658.69
2024-05-09T20:26:08.173Z,100657.81
2024-05-09T20:31:10.794Z,100657.61
2024-05-09T20:36:13.447Z,100659.13
2024-05-09T20:41:16.048Z,100655.70
2024-05-09T20:46:18.954Z,100654.05
2024-05-09T20:51:21.805Z,100653.06
2024-05-09T20:56:24.640Z,100654.53
2024-05-09T21:01:27.355Z,100655.61
2024-05-09T21:06:30.034Z,100656.14
2024-05-09T21:11:32.629Z,100659.33
2024-05-09T21:16:35.330Z,100656.48
2024-05-09T21:21:41.745Z,100657.95
2024-05-09T21:26:44.415Z,100651.23
2024-05-09T21:31:47.036Z,100651.67
2024-05-09T21:36:49.661Z,100651.30
2024-05-09T21:41:52.312Z,100651.57
2024-05-09T21:46:55.100Z,100655.25
2024-05-09T21:51:57.840Z,100655.39
2024-05-09T21:57:00.424Z,100653.52
2024-05-09T22:02:03.266Z,100663.98
2024-05-09T22:07:06.659Z,100660.38
2024-05-09T22:12:09.511Z,100653.52
2024-05-09T22:17:12.248Z,100649.30
2024-05-09T22:22:15.072Z,100649.39
2024-05-09T22:27:17.972Z,100646.59
2024-05-09T22:32:20.718Z,100646.04
2024-05-09T22:37:23.474Z,100641.08
2024-05-09T22:42:27.051Z,100635.35
2024-05-09T22:47:29.724Z,100630.95
2024-05-09T22:52:32.444Z,100628.70
2024-05-09T22:57:35.099Z,100622.27
2024-05-09T23:02:37.912Z,100625.31
2024-05-09T23:07:40.584Z,100624.73
2024-05-09T23:12:43.305Z,100615.98
2024-05-09T23:17:46.068Z,100613.41
2024-05-09T23:22:48.786Z,100612.17
2024-05-09T23:27:51.430Z,100613.43
2024-05-09T23:32:54.287Z,100603.85
2024-05-09T23:37:57.147Z,100601.58
2024-05-09T23:42:59.796Z,100600.84
2024-05-09T23:48:02.837Z,100597.26
2024-05-09T23:53:07.774Z,100592.03
2024-05-09T23:58:11.795Z,100592.34
